Time;durP1;ratioP1;P1;durP2;ratioP2;P2;SDS_P1;SDS_P2;PMS_P1;PMS_P2;Temp;Humidity;BMP_temperature;BMP_pressure;BME280_temperature;BME280_humidity;BME280_pressure;Samples;Min_cycle;Max_cycle;Signal;HPM_P1;HPM_P2
2022/04/21 00:00:04;;;;;;;16.20;11.40;;;;;;;4.35;100.00;99007.86;103532;1303;23510;-28
2022/04/21 00:02:33;;;;;;;19.00;12.30;;;;;;;4.36;100.00;99009.84;103447;1303;25226;-25
2022/04/21 00:05:02;;;;;;;18.00;11.40;;;;;;;4.35;100.00;99006.69;103394;1303;24974;-29
2022/04/21 00:07:31;;;;;;;19.20;10.40;;;;;;;4.39;100.00;99008.38;103384;1303;22511;-24
2022/04/21 00:10:01;;;;;;;24.10;12.60;;;;;;;4.43;100.00;99008.02;103466;1303;25220;-28
2022/04/21 00:12:30;;;;;;;22.40;14.50;;;;;;;4.45;100.00;99007.83;103470;1303;23755;-29
2022/04/21 00:15:01;;;;;;;13.70;10.40;;;;;;;4.44;100.00;99009.62;103420;1306;24363;-28
2022/04/21 00:17:30;;;;;;;14.10;10.40;;;;;;;4.41;100.00;99012.60;103430;1301;23595;-25
2022/04/21 00:19:59;;;;;;;13.10;10.30;;;;;;;4.38;100.00;99016.48;103365;1303;23641;-28
2022/04/21 00:25:01;;;;;;;17.50;10.60;;;;;;;4.40;100.00;99022.20;103424;1303;24355;-24
2022/04/21 00:27:30;;;;;;;18.30;11.60;;;;;;;4.37;100.00;99020.55;103434;1303;22510;-24
2022/04/21 00:29:59;;;;;;;15.90;11.50;;;;;;;4.37;100.00;99018.25;103415;1303;25312;-30
2022/04/21 00:32:28;;;;;;;17.10;11.30;;;;;;;4.38;100.00;99015.86;103446;1303;23603;-25
2022/04/21 00:34:57;;;;;;;23.10;13.10;;;;;;;4.41;100.00;99012.10;103481;1303;23755;-29
2022/04/21 00:37:27;;;;;;;14.40;9.50;;;;;;;4.41;100.00;99009.08;103434;1303;22519;-29
2022/04/21 00:39:56;;;;;;;22.30;11.30;;;;;;;4.41;100.00;99009.11;103423;1303;23769;-25
2022/04/21 00:42:25;;;;;;;16.90;11.30;;;;;;;4.46;100.00;99011.08;103265;1303;24273;-25
2022/04/21 00:44:54;;;;;;;16.60;10.50;;;;;;;4.41;100.00;99011.91;103440;1303;25085;-24
2022/04/21 00:47:23;;;;;;;19.30;11.20;;;;;;;4.43;100.00;99008.69;103387;1303;23738;-24
2022/04/21 00:49:52;;;;;;;17.00;11.20;;;;;;;4.45;100.00;99000.70;103493;1303;22512;-29
2022/04/21 00:52:21;;;;;;;13.10;8.10;;;;;;;4.42;100.00;99004.77;103396;1303;24195;-24
2022/04/21 00:54:50;;;;;;;21.90;13.10;;;;;;;4.46;100.00;98994.92;103434;1303;23934;-28
2022/04/21 00:57:20;;;;;;;23.10;13.10;;;;;;;4.49;100.00;98993.92;103452;1303;23806;-29
2022/04/21 00:59:49;;;;;;;19.90;10.90;;;;;;;4.50;100.00;98989.16;103409;1303;24321;-24
2022/04/21 01:04:51;;;;;;;16.80;10.20;;;;;;;4.56;100.00;98986.70;103477;1303;24000;-29
2022/04/21 01:07:20;;;;;;;14.50;11.00;;;;;;;4.45;100.00;98988.52;103456;1303;22814;-28
2022/04/21 01:09:49;;;;;;;28.90;18.80;;;;;;;4.44;100.00;98989.84;103384;1303;22520;-26
2022/04/21 01:12:18;;;;;;;22.40;14.60;;;;;;;4.45;100.00;98993.72;103368;1303;24304;-27
2022/04/21 01:14:46;;;;;;;19.90;13.60;;;;;;;4.47;100.00;98995.15;103202;1303;22642;-24
2022/04/21 01:17:15;;;;;;;13.90;10.40;;;;;;;4.59;100.00;98993.31;103474;1303;24249;-24
2022/04/21 01:19:44;;;;;;;17.60;11.10;;;;;;;4.55;100.00;98990.95;103470;1303;22581;-24
2022/04/21 01:22:13;;;;;;;21.70;12.80;;;;;;;4.39;100.00;98995.46;103472;1303;23891;-30
2022/04/21 01:24:42;;;;;;;16.90;11.50;;;;;;;4.40;100.00;98995.41;103446;1303;24297;-28
2022/04/21 01:27:11;;;;;;;22.30;12.30;;;;;;;4.33;100.00;98998.08;103440;1303;23605;-28
2022/04/21 01:29:40;;;;;;;21.90;12.70;;;;;;;4.37;100.00;98999.98;103490;1303;24471;-25
2022/04/21 01:32:09;;;;;;;22.80;12.90;;;;;;;4.35;100.00;99002.99;103459;1303;24285;-29
2022/04/21 01:34:38;;;;;;;19.40;12.60;;;;;;;4.33;100.00;98995.64;103452;1303;24272;-30
2022/04/21 01:42:14;;;;;;;22.80;12.40;;;;;;;4.43;100.00;98992.73;103444;1303;22683;-28
2022/04/21 01:44:43;;;;;;;25.20;13.70;;;;;;;4.40;100.00;98987.61;103503;1303;22918;-28
2022/04/21 01:47:12;;;;;;;21.30;10.90;;;;;;;4.41;100.00;98984.21;103513;1303;23127;-28
2022/04/21 01:49:41;;;;;;;25.30;14.30;;;;;;;4.40;100.00;98983.98;103501;1303;24240;-24
2022/04/21 01:52:09;;;;;;;18.70;10.40;;;;;;;4.40;100.00;98983.88;103492;1303;22503;-30
2022/04/21 01:54:38;;;;;;;21.90;12.60;;;;;;;4.35;100.00;98983.33;103487;1303;23730;-28
2022/04/21 01:57:07;;;;;;;18.20;12.10;;;;;;;4.38;100.00;98984.29;103489;1303;23609;-30
2022/04/21 01:59:36;;;;;;;19.40;11.40;;;;;;;4.40;100.00;98985.31;103413;1303;24246;-25
2022/04/21 02:02:05;;;;;;;15.20;11.10;;;;;;;4.41;100.00;98985.58;103413;1303;23823;-26
2022/04/21 02:04:34;;;;;;;14.70;10.00;;;;;;;4.37;100.00;98983.48;103448;1303;25415;-29
2022/04/21 02:07:04;;;;;;;17.30;11.00;;;;;;;4.35;100.00;98982.63;103436;1303;24306;-28
2022/04/21 02:09:33;;;;;;;16.80;9.70;;;;;;;4.37;100.00;98982.83;103451;1303;24973;-28
2022/04/21 02:12:02;;;;;;;17.90;10.70;;;;;;;4.39;100.00;98981.48;103452;1303;25079;-27
2022/04/21 02:14:31;;;;;;;15.00;11.40;;;;;;;4.47;100.00;98979.93;103419;1302;24013;-30
2022/04/21 02:17:00;;;;;;;15.30;10.20;;;;;;;4.41;100.00;98980.96;103500;1303;24288;-28
2022/04/21 02:19:29;;;;;;;14.40;9.80;;;;;;;4.35;100.00;98981.79;103440;1303;25129;-28
2022/04/21 02:21:58;;;;;;;14.00;9.80;;;;;;;4.37;100.00;98982.77;103501;1303;23870;-25
2022/04/21 02:24:27;;;;;;;17.70;12.00;;;;;;;4.44;100.00;98982.02;103437;1303;22629;-25
2022/04/21 02:26:56;;;;;;;16.60;10.20;;;;;;;4.39;100.00;98979.77;103430;1302;22495;-25
2022/04/21 02:29:25;;;;;;;13.10;8.80;;;;;;;4.40;100.00;98984.80;103461;1303;22629;-25
2022/04/21 02:31:54;;;;;;;14.70;10.30;;;;;;;4.39;100.00;98988.80;103445;1303;25124;-28
2022/04/21 02:34:23;;;;;;;11.70;9.30;;;;;;;4.42;100.00;98991.64;103408;1303;22503;-28
2022/04/21 02:36:52;;;;;;;17.30;9.90;;;;;;;4.43;100.00;98994.13;103404;1303;22642;-25
2022/04/21 02:39:21;;;;;;;9.90;8.30;;;;;;;4.45;100.00;98993.19;103390;1303;22512;-29
2022/04/21 02:41:50;;;;;;;11.20;9.80;;;;;;;4.48;100.00;98992.90;103450;1303;24998;-29
2022/04/21 02:44:19;;;;;;;14.70;10.30;;;;;;;4.49;100.00;98994.38;103436;1303;22515;-25
2022/04/21 02:46:48;;;;;;;18.20;10.70;;;;;;;4.46;100.00;98997.58;103407;1303;24247;-25
2022/04/21 02:49:17;;;;;;;12.50;9.40;;;;;;;4.44;100.00;98998.47;103425;1303;24245;-29
2022/04/21 02:51:46;;;;;;;14.00;10.90;;;;;;;4.38;100.00;99007.13;103390;1303;24246;-26
2022/04/21 02:59:20;;;;;;;13.30;9.90;;;;;;;4.45;100.00;99010.04;103458;1303;23499;-26
2022/04/21 03:01:49;;;;;;;13.50;10.30;;;;;;;4.48;100.00;99005.36;103428;1303;25024;-24
2022/04/21 03:04:18;;;;;;;12.80;10.00;;;;;;;4.49;100.00;99002.89;103465;1303;23954;-28
2022/04/21 03:06:47;;;;;;;15.00;10.50;;;;;;;4.48;100.00;99002.33;103420;1303;24992;-30
2022/04/21 03:09:16;;;;;;;15.70;10.50;;;;;;;4.45;100.00;99004.27;103421;1302;22500;-25
2022/04/21 03:11:48;;;;;;;15.70;10.30;;;;;;;4.40;100.00;99001.58;103423;1303;24210;-25
2022/04/21 03:14:18;;;;;;;14.30;9.20;;;;;;;4.40;100.00;99001.40;103475;1303;25063;-25
2022/04/21 03:16:47;;;;;;;14.90;10.10;;;;;;;4.44;100.00;99004.86;103384;1302;24995;-24
2022/04/21 03:19:16;;;;;;;15.00;10.30;;;;;;;4.43;100.00;99002.80;103449;1303;22793;-28
2022/04/21 03:24:19;;;;;;;12.30;9.40;;;;;;;4.47;100.00;98993.95;103398;1303;24259;-24
2022/04/21 03:26:49;;;;;;;14.80;10.40;;;;;;;4.43;100.00;98994.13;103447;1303;25097;-29
2022/04/21 03:29:19;;;;;;;17.60;10.50;;;;;;;4.46;100.00;98989.23;103444;1303;23610;-25
2022/04/21 03:31:48;;;;;;;18.10;11.80;;;;;;;4.52;100.00;98991.46;103403;1303;23613;-26
2022/04/21 03:34:18;;;;;;;12.70;9.20;;;;;;;4.52;100.00;98991.40;103485;1303;23649;-25
2022/04/21 03:36:48;;;;;;;18.50;9.90;;;;;;;4.47;100.00;98985.80;103413;1303;24971;-28
2022/04/21 03:39:20;;;;;;;15.50;10.60;;;;;;;4.42;100.00;98986.52;103486;1303;23646;-26
2022/04/21 03:41:53;;;;;;;21.20;10.80;;;;;;;4.42;100.00;98987.41;103458;1303;23627;-29
2022/04/21 03:44:23;;;;;;;13.70;10.30;;;;;;;4.43;100.00;98983.49;103311;1303;22508;-25
2022/04/21 03:46:57;;;;;;;20.00;11.30;;;;;;;4.44;100.00;98979.14;103432;1303;25076;-24
2022/04/21 03:49:27;;;;;;;13.60;10.40;;;;;;;4.44;100.00;98981.60;103497;1303;25018;-24
2022/04/21 03:51:56;;;;;;;18.20;12.30;;;;;;;4.43;100.00;98981.57;103437;1303;22512;-24
2022/04/21 03:54:26;;;;;;;21.80;13.00;;;;;;;4.43;100.00;98979.31;103417;1303;24206;-25
2022/04/21 03:56:55;;;;;;;18.20;13.50;;;;;;;4.41;100.00;98976.84;103417;1303;24965;-24
2022/04/21 03:59:24;;;;;;;15.60;11.30;;;;;;;4.36;100.00;98982.86;103473;1303;22505;-25
2022/04/21 04:01:53;;;;;;;20.00;10.60;;;;;;;4.27;100.00;98987.61;103447;1303;22630;-29
2022/04/21 04:04:22;;;;;;;18.00;10.70;;;;;;;4.32;100.00;98983.86;103431;1303;24305;-27
2022/04/21 04:11:56;;;;;;;15.70;10.60;;;;;;;4.41;100.00;98984.66;103423;1303;24301;-31
2022/04/21 04:14:25;;;;;;;14.80;11.50;;;;;;;4.43;100.00;98986.58;103111;1302;355317;-29
2022/04/21 04:16:55;;;;;;;19.20;13.30;;;;;;;4.46;100.00;98984.95;103442;1303;25370;-24
2022/04/21 04:19:24;;;;;;;24.80;12.20;;;;;;;4.46;100.00;98984.48;103435;1303;24176;-25
2022/04/21 04:21:53;;;;;;;14.40;12.20;;;;;;;4.53;100.00;98986.03;103409;1303;22504;-31
2022/04/21 04:24:22;;;;;;;11.10;8.50;;;;;;;4.53;100.00;98983.38;103495;1303;22492;-29
2022/04/21 04:26:51;;;;;;;30.50;13.70;;;;;;;4.61;100.00;98986.90;103448;1303;23589;-30
2022/04/21 04:29:22;;;;;;;16.60;11.20;;;;;;;4.63;100.00;98988.71;103443;1303;23609;-28
2022/04/21 04:31:52;;;;;;;51.90;11.70;;;;;;;4.63;100.00;98992.64;103453;1303;22504;-28
2022/04/21 04:34:21;;;;;;;15.40;11.10;;;;;;;4.67;100.00;98993.59;103451;1303;25061;-28
2022/04/21 04:36:50;;;;;;;18.70;12.00;;;;;;;4.67;100.00;98995.45;103441;1303;23749;-29
2022/04/21 04:39:19;;;;;;;12.60;9.00;;;;;;;4.62;100.00;98995.60;103469;1303;25103;-24
2022/04/21 04:44:21;;;;;;;15.40;10.60;;;;;;;4.74;100.00;99002.11;103455;1303;22628;-24
2022/04/21 04:46:50;;;;;;;18.90;12.40;;;;;;;4.76;100.00;99004.23;103428;1303;23738;-29
2022/04/21 04:49:19;;;;;;;19.30;13.30;;;;;;;4.76;100.00;99004.41;103235;1303;23979;-24
2022/04/21 04:51:48;;;;;;;16.60;11.30;;;;;;;4.84;100.00;99002.84;103463;1303;22717;-29
2022/04/21 04:54:17;;;;;;;19.60;10.60;;;;;;;4.89;100.00;99009.36;103489;1303;24204;-25
2022/04/21 04:56:47;;;;;;;14.50;9.70;;;;;;;4.95;99.99;99011.34;103475;1303;22510;-25
2022/04/21 04:59:16;;;;;;;21.40;14.00;;;;;;;4.94;99.99;99009.84;103391;1303;23523;-29
2022/04/21 05:01:46;;;;;;;17.20;12.00;;;;;;;4.96;99.98;99009.81;103511;1303;22499;-25
2022/04/21 05:04:16;;;;;;;17.70;10.90;;;;;;;5.06;100.00;99005.16;103463;1303;24195;-24
2022/04/21 05:06:48;;;;;;;21.70;14.10;;;;;;;5.12;100.00;99003.60;103483;1301;22757;-29
2022/04/21 05:09:18;;;;;;;18.80;13.00;;;;;;;5.17;99.92;99002.20;103436;1303;23612;-27
2022/04/21 05:11:51;;;;;;;23.70;14.00;;;;;;;5.15;99.93;98995.98;103169;1303;24191;-28
2022/04/21 05:14:20;;;;;;;16.40;11.80;;;;;;;5.12;99.71;98998.88;103373;1303;22749;-25
2022/04/21 05:16:50;;;;;;;20.10;13.10;;;;;;;5.10;99.61;98991.50;103409;1303;24298;-25
2022/04/21 05:19:20;;;;;;;17.70;13.10;;;;;;;5.13;99.97;98989.46;103427;1303;23605;-26
2022/04/21 05:21:49;;;;;;;17.00;11.30;;;;;;;5.24;100.00;98996.02;103397;1303;24397;-24
2022/04/21 05:24:19;;;;;;;19.10;11.40;;;;;;;5.34;100.00;99000.23;103267;1303;24253;-28
2022/04/21 05:26:48;;;;;;;19.20;12.00;;;;;;;5.42;99.93;98998.98;103441;1303;24081;-29
2022/04/21 05:31:54;;;;;;;18.30;12.30;;;;;;;5.41;98.56;98995.88;103417;1303;22834;-30
2022/04/21 05:34:24;;;;;;;17.30;11.40;;;;;;;5.53;98.85;98997.68;103486;1303;22639;-25
2022/04/21 05:36:54;;;;;;;24.30;14.40;;;;;;;5.76;99.47;98997.67;103485;1303;22508;-25
2022/04/21 05:39:23;;;;;;;18.00;12.50;;;;;;;5.85;99.00;99003.30;103352;1303;25213;-25
2022/04/21 05:41:53;;;;;;;16.50;12.40;;;;;;;6.01;98.67;99004.56;103555;1303;24287;-28
2022/04/21 05:44:22;;;;;;;17.20;11.30;;;;;;;5.99;98.12;99003.31;103453;1303;23341;-24
2022/04/21 05:46:51;;;;;;;21.80;11.90;;;;;;;6.08;97.88;99002.69;103425;1303;22517;-29
2022/04/21 05:49:21;;;;;;;17.40;11.40;;;;;;;6.12;97.31;99003.80;103478;1303;22767;-28
2022/04/21 05:51:52;;;;;;;15.40;10.40;;;;;;;6.30;97.71;99002.55;103440;1303;24221;-24
2022/04/21 05:54:21;;;;;;;18.30;12.50;;;;;;;6.51;97.85;99001.73;103290;1303;24969;-26
2022/04/21 05:56:50;;;;;;;20.80;13.00;;;;;;;6.50;97.57;99006.13;103477;1303;22596;-26
2022/04/21 05:59:19;;;;;;;20.60;12.10;;;;;;;6.66;97.09;99003.84;103503;1303;22737;-29
2022/04/21 06:01:48;;;;;;;23.80;13.10;;;;;;;6.62;96.39;99006.61;103452;1303;24176;-25
2022/04/21 06:04:21;;;;;;;16.80;12.10;;;;;;;6.66;96.49;99006.48;103507;1303;22937;-25
2022/04/21 06:06:50;;;;;;;13.50;10.80;;;;;;;6.67;94.54;99002.81;103504;1303;23576;-29
2022/04/21 06:09:19;;;;;;;15.90;11.00;;;;;;;6.73;94.81;98998.64;103446;1303;24250;-31
2022/04/21 06:11:49;;;;;;;16.90;11.50;;;;;;;6.90;94.46;98999.64;103472;1302;22511;-29
2022/04/21 06:14:18;;;;;;;17.40;11.10;;;;;;;6.95;93.35;99007.91;103433;1303;25057;-28
2022/04/21 06:16:47;;;;;;;14.10;10.70;;;;;;;7.09;94.58;99007.16;103296;1303;24310;-25
2022/04/21 06:19:16;;;;;;;12.50;8.80;;;;;;;7.13;94.62;99006.98;103225;1303;24246;-29
2022/04/21 06:21:45;;;;;;;16.40;10.70;;;;;;;7.11;93.39;99016.81;103485;1303;24192;-28
2022/04/21 06:24:14;;;;;;;12.60;9.20;;;;;;;6.96;91.46;99017.62;103453;1303;23122;-29
2022/04/21 06:26:43;;;;;;;13.90;10.10;;;;;;;7.11;92.75;99017.55;103446;1303;24312;-25
2022/04/21 06:29:12;;;;;;;18.40;11.10;;;;;;;7.09;92.54;99014.02;103418;1303;23603;-24
2022/04/21 06:31:40;;;;;;;12.80;8.50;;;;;;;7.07;92.30;99015.76;103436;1303;22528;-29
2022/04/21 06:34:09;;;;;;;14.70;10.30;;;;;;;7.25;91.96;99014.78;103478;1303;24214;-29
2022/04/21 06:36:38;;;;;;;12.50;8.60;;;;;;;7.04;91.34;99018.38;103468;1303;25200;-25
2022/04/21 06:39:07;;;;;;;13.40;10.60;;;;;;;7.08;90.65;99024.48;103411;1303;23738;-29
2022/04/21 06:41:36;;;;;;;13.20;10.20;;;;;;;7.14;91.24;99026.86;103421;1303;23872;-25
2022/04/21 06:49:11;;;;;;;16.70;9.60;;;;;;;7.23;92.31;99027.05;103454;1303;24970;-29
2022/04/21 06:51:40;;;;;;;16.10;11.40;;;;;;;7.13;90.89;99023.45;103241;1303;25357;-31
2022/04/21 06:54:09;;;;;;;14.50;10.30;;;;;;;7.29;91.71;99025.57;103477;1303;22501;-25
2022/04/21 06:56:38;;;;;;;13.40;10.00;;;;;;;7.47;91.48;99025.55;103471;1303;24199;-29
2022/04/21 06:59:07;;;;;;;12.90;9.90;;;;;;;7.70;91.48;99021.41;103500;1303;25072;-25
2022/04/21 07:01:36;;;;;;;14.70;12.00;;;;;;;7.81;90.19;99024.91;103484;1303;23844;-24
2022/04/21 07:04:05;;;;;;;17.40;11.30;;;;;;;7.71;90.06;99026.34;103455;1302;22506;-25
2022/04/21 07:06:34;;;;;;;18.50;10.80;;;;;;;7.76;90.01;99027.55;103427;1302;24234;-29
2022/04/21 07:09:03;;;;;;;13.80;10.40;;;;;;;7.68;88.37;99027.18;103439;1303;24986;-29
2022/04/21 07:11:32;;;;;;;13.10;10.60;;;;;;;7.72;88.10;99031.54;103391;1303;22978;-25
2022/04/21 07:14:01;;;;;;;11.90;10.00;;;;;;;7.78;88.66;99032.95;103408;1303;24220;-28
2022/04/21 07:16:30;;;;;;;11.20;8.00;;;;;;;7.81;88.06;99034.23;103424;1303;24370;-29
2022/04/21 07:18:59;;;;;;;11.20;9.00;;;;;;;7.98;88.50;99034.23;103410;1303;24167;-29
2022/04/21 07:21:28;;;;;;;8.90;7.70;;;;;;;8.07;86.32;99035.61;103460;1303;24410;-29
2022/04/21 07:23:58;;;;;;;14.30;8.00;;;;;;;8.01;86.41;99040.52;103508;1303;22618;-29
2022/04/21 07:26:28;;;;;;;12.70;7.70;;;;;;;8.15;86.32;99042.43;103422;1303;24214;-25
2022/04/21 07:28:57;;;;;;;12.70;7.40;;;;;;;8.33;85.90;99044.90;103414;1303;25315;-29
2022/04/21 07:31:26;;;;;;;12.40;8.50;;;;;;;8.61;86.05;99050.33;103459;1302;24183;-29
2022/04/21 07:33:55;;;;;;;8.80;6.30;;;;;;;8.43;84.79;99050.08;103460;1303;22514;-25
2022/04/21 07:36:24;;;;;;;7.90;6.80;;;;;;;8.47;83.94;99048.55;103302;1303;22606;-29
2022/04/21 07:38:54;;;;;;;9.70;8.60;;;;;;;8.36;83.66;99049.17;103454;1303;23799;-25
2022/04/21 07:41:23;;;;;;;13.50;8.00;;;;;;;8.32;84.12;99048.72;103427;1303;25111;-25
2022/04/21 07:43:52;;;;;;;8.00;7.10;;;;;;;8.24;84.86;99049.41;103469;1303;23648;-30
2022/04/21 07:46:21;;;;;;;7.80;6.10;;;;;;;8.48;85.24;99047.02;103406;1303;23772;-30
2022/04/21 07:51:22;;;;;;;9.40;4.20;;;;;;;8.75;82.03;99046.11;103491;1303;22505;-25
2022/04/21 07:53:51;;;;;;;6.50;4.80;;;;;;;8.79;80.89;99043.85;103441;1303;22502;-28
2022/04/21 07:56:20;;;;;;;8.40;6.30;;;;;;;8.49;80.87;99045.77;103448;1303;22501;-25
2022/04/21 07:58:49;;;;;;;5.00;3.60;;;;;;;8.32;81.62;99040.94;103459;1303;22511;-25
2022/04/21 08:01:18;;;;;;;8.40;5.50;;;;;;;8.63;80.98;99042.06;103416;1303;22533;-29
2022/04/21 08:03:48;;;;;;;8.90;6.50;;;;;;;8.61;81.49;99044.67;103443;1303;23858;-25
2022/04/21 08:06:17;;;;;;;4.10;3.50;;;;;;;8.60;81.51;99049.45;103276;1303;22500;-29
2022/04/21 08:08:47;;;;;;;8.80;6.20;;;;;;;8.72;80.62;99053.59;103456;1303;25265;-26
2022/04/21 08:11:16;;;;;;;9.10;5.60;;;;;;;8.86;80.16;99052.75;103228;1303;24210;-32
2022/04/21 08:13:45;;;;;;;8.90;6.40;;;;;;;8.67;80.57;99054.42;103447;1303;22781;-25
2022/04/21 08:16:14;;;;;;;9.90;5.30;;;;;;;8.95;80.40;99049.91;103488;1303;24224;-25
2022/04/21 08:18:43;;;;;;;6.10;5.10;;;;;;;8.99;80.40;99051.13;103521;1303;22636;-28
2022/04/21 08:21:12;;;;;;;5.10;4.60;;;;;;;9.04;80.38;99060.15;103359;1303;23787;-25
2022/04/21 08:23:41;;;;;;;9.00;6.40;;;;;;;9.07;80.18;99062.08;103368;1303;23514;-30
2022/04/21 08:33:47;;;;;;;5.40;4.10;;;;;;;9.08;77.96;99068.34;103474;1303;24304;-27
2022/04/21 08:36:17;;;;;;;7.70;5.50;;;;;;;9.23;78.11;99071.05;103458;1303;24355;-29
2022/04/21 08:38:47;;;;;;;5.40;4.30;;;;;;;9.19;77.77;99069.61;103430;1303;24237;-25
2022/04/21 08:41:18;;;;;;;6.50;5.00;;;;;;;9.00;77.18;99074.20;103300;1303;22522;-25
2022/04/21 08:43:47;;;;;;;7.70;5.20;;;;;;;8.60;78.57;99073.84;103428;1303;23843;-29
2022/04/21 08:46:17;;;;;;;6.70;4.40;;;;;;;8.56;78.97;99078.20;103487;1303;24214;-27
2022/04/21 08:48:50;;;;;;;10.00;7.90;;;;;;;8.49;79.70;99081.75;103512;1303;24265;-25
2022/04/21 08:51:19;;;;;;;11.00;5.90;;;;;;;8.50;79.54;99082.30;103485;1303;25226;-29
2022/04/21 08:53:49;;;;;;;9.10;6.70;;;;;;;8.55;79.77;99078.27;103432;1303;22737;-24
2022/04/21 08:56:18;;;;;;;6.50;4.80;;;;;;;8.56;79.79;99086.11;103398;1303;24302;-29
2022/04/21 08:58:47;;;;;;;6.80;5.40;;;;;;;8.64;80.48;99084.91;103431;1303;24224;-25
2022/04/21 09:01:16;;;;;;;6.80;5.60;;;;;;;8.64;80.17;99084.08;103383;1303;22505;-29
2022/04/21 09:03:46;;;;;;;12.70;7.50;;;;;;;8.65;80.14;99084.84;103384;1304;24216;-26
2022/04/21 09:06:16;;;;;;;6.20;5.30;;;;;;;8.60;80.00;99081.86;103424;1303;24211;-28
2022/04/21 09:08:47;;;;;;;10.10;6.40;;;;;;;8.62;80.21;99082.55;103443;1302;23910;-31
2022/04/21 09:11:18;;;;;;;5.60;4.90;;;;;;;8.62;79.73;99082.30;103482;1303;24314;-25
2022/04/21 09:13:47;;;;;;;6.90;6.10;;;;;;;8.64;79.44;99081.58;103385;1303;24348;-25
2022/04/21 09:16:20;;;;;;;7.00;6.10;;;;;;;8.73;79.53;99082.80;103408;1303;23429;-29
2022/04/21 09:18:49;;;;;;;5.50;4.20;;;;;;;8.94;79.57;99082.70;103429;1303;24301;-25
2022/04/21 09:21:18;;;;;;;6.00;5.10;;;;;;;9.04;79.45;99082.79;103459;1303;22627;-28
2022/04/21 09:23:48;;;;;;;10.60;7.30;;;;;;;9.26;77.62;99079.80;103457;1303;22783;-28
2022/04/21 09:26:20;;;;;;;6.90;4.90;;;;;;;8.82;78.48;99079.67;103424;1302;23792;-28
2022/04/21 09:28:53;;;;;;;7.20;6.00;;;;;;;8.78;79.13;99082.90;103481;1303;23420;-25
2022/04/21 09:31:24;;;;;;;8.70;6.80;;;;;;;9.01;78.86;99079.77;103431;1301;22518;-31
2022/04/21 09:33:54;;;;;;;6.80;5.50;;;;;;;9.15;76.50;99085.73;103452;1303;25233;-31
2022/04/21 09:36:23;;;;;;;8.20;6.20;;;;;;;8.87;77.79;99089.92;103455;1303;24018;-25
2022/04/21 09:38:56;;;;;;;6.70;5.90;;;;;;;8.62;78.72;99090.77;103424;1303;24999;-29
2022/04/21 09:41:27;;;;;;;;;;;;;;;8.49;78.64;99092.54;103479;1303;24314;-29
2022/04/21 09:44:03;;;;;;;8.20;6.00;;;;;;;8.53;79.12;99089.54;103409;1303;24313;-25
2022/04/21 09:46:32;;;;;;;6.60;5.00;;;;;;;8.95;79.11;99091.80;103392;1303;24284;-28
2022/04/21 09:49:01;;;;;;;6.50;5.40;;;;;;;9.24;77.36;99089.92;103314;1303;22504;-28
2022/04/21 09:51:31;;;;;;;19.70;6.50;;;;;;;9.04;77.71;99091.55;103434;1303;22976;-29
2022/04/21 09:54:01;;;;;;;6.40;4.90;;;;;;;9.23;76.88;99090.41;103267;1303;22504;-25
2022/04/21 09:56:31;;;;;;;6.50;5.00;;;;;;;9.09;77.39;99093.57;103399;1303;23786;-25
2022/04/21 09:59:01;;;;;;;11.40;5.60;;;;;;;9.08;78.10;99096.77;103413;1303;24199;-28
2022/04/21 10:01:30;;;;;;;6.70;6.00;;;;;;;9.21;78.49;99094.03;103317;1303;23042;-28
2022/04/21 10:03:59;;;;;;;12.90;7.00;;;;;;;9.34;77.80;99093.98;103422;1303;24288;-25
2022/04/21 10:06:28;;;;;;;11.80;7.90;;;;;;;9.41;78.30;99088.94;103335;1303;24209;-28
2022/04/21 10:08:57;;;;;;;7.00;5.90;;;;;;;9.77;76.30;99090.08;103390;1303;23539;-27
2022/04/21 10:11:27;;;;;;;6.00;4.50;;;;;;;9.30;75.35;99087.56;103445;1303;22631;-29
2022/04/21 10:13:57;;;;;;;4.70;4.00;;;;;;;9.17;76.56;99083.45;103439;1303;25313;-29
2022/04/21 10:16:28;;;;;;;6.40;5.30;;;;;;;9.33;76.07;99080.38;103495;1303;24211;-25
2022/04/21 10:18:58;;;;;;;6.20;4.80;;;;;;;9.44;75.74;99081.30;103410;1302;25378;-25
2022/04/21 10:21:30;;;;;;;5.40;4.30;;;;;;;9.13;76.41;99078.27;103369;1303;23062;-27
2022/04/21 10:23:59;;;;;;;8.50;6.30;;;;;;;9.35;76.72;99071.29;103427;1303;22604;-28
2022/04/21 10:26:35;;;;;;;7.00;5.90;;;;;;;9.36;76.48;99076.44;103485;1303;24294;-28
2022/04/21 10:29:09;;;;;;;8.20;6.70;;;;;;;9.41;77.76;99074.17;103473;1302;24211;-26
2022/04/21 10:31:45;;;;;;;7.10;6.00;;;;;;;9.84;74.90;99076.62;103445;1303;25474;-29
2022/04/21 10:34:21;;;;;;;6.80;5.30;;;;;;;9.61;75.19;99071.92;103402;1303;24233;-26
2022/04/21 10:36:50;;;;;;;7.70;5.40;;;;;;;9.54;76.80;99069.75;103402;1303;24406;-26
2022/04/21 10:39:22;;;;;;;8.60;6.40;;;;;;;9.73;75.58;99066.59;103405;1302;22660;-29
2022/04/21 10:41:58;;;;;;;11.00;7.50;;;;;;;9.84;75.33;99068.45;103327;1303;24016;-29
2022/04/21 10:44:27;;;;;;;9.70;5.70;;;;;;;9.93;74.67;99069.39;103436;1303;24211;-25
2022/04/21 10:47:02;;;;;;;8.70;6.10;;;;;;;10.01;74.14;99069.39;103478;1303;24350;-29
2022/04/21 10:49:39;;;;;;;8.10;6.80;;;;;;;9.86;75.24;99068.67;103412;1303;24361;-29
2022/04/21 10:57:29;;;;;;;10.40;5.70;;;;;;;10.32;73.44;99063.14;103493;1303;24498;-25
2022/04/21 10:59:58;;;;;;;7.00;6.00;;;;;;;10.62;74.52;99059.96;103440;1303;22648;-29
2022/04/21 11:02:34;;;;;;;5.90;5.00;;;;;;;10.80;72.88;99058.20;103429;1303;24397;-29
2022/04/21 11:05:21;;;;;;;7.20;5.50;;;;;;;11.11;72.44;99058.57;103444;1303;24058;-29
2022/04/21 11:07:51;;;;;;;8.10;5.70;;;;;;;11.12;71.79;99059.42;103282;1303;24244;-27
2022/04/21 11:10:25;;;;;;;7.90;5.80;;;;;;;11.29;70.25;99055.98;103379;1303;22715;-25
2022/04/21 11:12:54;;;;;;;6.60;5.40;;;;;;;11.30;70.86;99058.77;103449;1302;23590;-25
2022/04/21 11:15:31;;;;;;;6.80;4.00;;;;;;;10.91;69.93;99061.20;103426;1303;23420;-28
2022/04/21 11:18:07;;;;;;;11.40;6.00;;;;;;;11.22;71.54;99058.23;103434;1303;22519;-24
2022/04/21 11:20:40;;;;;;;14.70;6.50;;;;;;;11.67;70.20;99058.01;103412;1303;23987;-25
2022/04/21 11:23:10;;;;;;;18.70;6.40;;;;;;;11.48;68.34;99060.78;103409;1303;24007;-28
2022/04/21 11:25:41;;;;;;;11.70;7.60;;;;;;;10.88;69.39;99064.86;103430;1302;23635;-30
2022/04/21 11:28:10;;;;;;;8.80;6.90;;;;;;;11.12;70.40;99056.20;103466;1303;24240;-25
2022/04/21 11:30:39;;;;;;;8.00;6.60;;;;;;;10.98;70.14;99056.46;103455;1303;23730;-25
2022/04/21 11:33:10;;;;;;;8.50;7.40;;;;;;;10.68;70.24;99059.80;103412;1303;24246;-25
2022/04/21 11:35:39;;;;;;;9.10;6.40;;;;;;;10.86;71.09;99055.22;103386;1303;24365;-29
2022/04/21 11:38:08;;;;;;;8.70;6.60;;;;;;;11.53;68.61;99048.06;103421;1303;23809;-25
2022/04/21 11:40:37;;;;;;;11.60;7.70;;;;;;;11.25;69.20;99045.85;103342;1303;22509;-29
2022/04/21 11:43:10;;;;;;;7.30;5.80;;;;;;;11.66;67.82;99039.80;103470;1300;22637;-29
2022/04/21 11:45:41;;;;;;;6.60;5.70;;;;;;;11.26;67.87;99042.50;103434;1303;22519;-25
2022/04/21 11:48:13;;;;;;;9.20;6.00;;;;;;;11.56;68.64;99039.19;103342;1303;23747;-29
2022/04/21 11:50:44;;;;;;;8.80;5.50;;;;;;;12.00;66.91;99036.94;103471;1303;22758;-28
2022/04/21 11:53:15;;;;;;;13.50;10.10;;;;;;;12.19;66.01;99034.12;103446;1303;23932;-29
2022/04/21 11:55:44;;;;;;;8.90;7.90;;;;;;;12.23;66.02;99034.84;103405;1303;24330;-29
2022/04/21 11:58:27;;;;;;;8.30;6.40;;;;;;;12.24;64.60;99041.75;103444;1303;22767;-27
2022/04/21 12:08:35;;;;;;;7.40;6.10;;;;;;;12.76;62.12;99034.42;103435;1303;22502;-29
2022/04/21 12:11:08;;;;;;;6.70;6.00;;;;;;;13.03;62.90;99036.11;103400;1303;25124;-25
2022/04/21 12:13:37;;;;;;;7.50;6.00;;;;;;;13.40;61.38;99032.80;103268;1303;358796;-25
2022/04/21 12:16:29;;;;;;;8.40;6.00;;;;;;;13.33;61.63;99032.15;103504;1303;22511;-26
2022/04/21 12:19:09;;;;;;;6.20;5.50;;;;;;;13.89;58.95;99030.01;103415;1303;22516;-28
2022/04/21 12:21:38;;;;;;;12.30;7.30;;;;;;;13.41;59.75;99026.52;103344;1303;24211;-29
2022/04/21 12:24:12;;;;;;;8.80;7.50;;;;;;;13.43;61.04;99022.80;103356;1304;24224;-25
2022/04/21 12:26:47;;;;;;;9.30;7.60;;;;;;;13.88;61.68;99024.64;103460;1303;24376;-24